East Muncy, Pennsylvania
Current Conditions -  °F | °C
As of 2:54 AM on Saturday 20 Dec 2014 (Local Time) from KIPT Reporting Station
Overcast Overcast  
Wind Chill: 31°   Ceiling: 2900
Heat Index: 31°   Visibility: 10mi
Dew Point: 19°   Wind: 3mph
Humidity: 61%   Direction: 330°NNW
Pressure: 30.22"   Gusts: NA
Location:  41.225°N, 76.7388°W
Report Text: KIPT 200754Z AUTO 33003KT 10SM OVC029 M01/M07 A3022 RMK AO2 SLP239 T10061072
Loading
Personal Weather Stations






























Interactive Weather Map New forecast layout! Learn more

10-Day Weather Forecast

Advertisements
Track Severe Weather on mobile